Flight Track Log - Related Links

Times and Time Zones

All times are in EDT time to prevent confusion due to time zone crossing. See the KFS915 flight status page for this flight to view local times or setup timezone preferences in your user account.

Time Position Orientation Groundspeed Altitude Reporting Facility
EDT Latitude Longitude Course Direction KTS MPH feet Rate Location/Type
Wed 09:22:00 AM 24.9260 -100.2338 13° North  Level FlightAware Approximate
Wed 09:23:00 AM 25.0361 -100.2045 14° North  Level FlightAware Approximate
Wed 09:24:00 AM 25.1462 -100.1751 14° North  Level FlightAware Approximate
Wed 09:25:00 AM 25.2563 -100.1457 14° North  Level FlightAware Approximate
Wed 09:26:00 AM 25.3664 -100.1162 14° North  Level FlightAware Approximate
Wed 09:27:00 AM 25.4765 -100.0867 14° North  Level FlightAware Approximate
Wed 09:28:00 AM 25.5866 -100.0571 14° North  Level FlightAware Approximate
Wed 09:29:00 AM 25.6967 -100.0274 14° North  Level FlightAware Approximate
Wed 09:30:00 AM 25.8067 -99.9977 14° North  Level FlightAware Approximate
Wed 09:31:00 AM 25.9168 -99.9680 14° North  Level FlightAware Approximate
Wed 09:32:00 AM 26.0269 -99.9382 14° North  Level FlightAware Approximate
Wed 09:33:00 AM 26.1369 -99.9084 14° North  Level FlightAware Approximate
Wed 09:34:00 AM 26.2470 -99.8785 14° North  Level FlightAware Approximate
Wed 09:35:00 AM 26.3571 -99.8486 14° North  Level FlightAware Approximate
Wed 09:36:00 AM 26.4671 -99.8186 14° North  Level FlightAware Approximate
Wed 09:37:00 AM 26.5772 -99.7886 14° North  Level FlightAware Approximate
Wed 09:38:00 AM 26.6872 -99.7585 14° North  Level FlightAware Approximate
Wed 09:39:00 AM 26.7972 -99.7283 14° North  Level FlightAware Approximate
Wed 09:40:00 AM 26.9072 -99.6981 14° North  Level FlightAware Approximate
Wed 09:41:00 AM 27.0173 -99.6678 14° North  Level FlightAware Approximate
Wed 09:42:00 AM 27.1273 -99.6375 14° North  Level FlightAware Approximate
Wed 09:43:00 AM 27.2373 -99.6071 14° North  Level FlightAware Approximate
Wed 09:44:00 AM 27.3473 -99.5767 14° North  Level FlightAware Approximate
Wed 09:44:13 AM 27.4994 -99.5706 42° Northeast 298 343 6,300  Level Houston Center
Wed 09:45:00 AM 27.4487 -99.5347 42° Northeast  Level FlightAware Approximate
Wed 09:45:15 AM 27.5925 -99.5858 352° North 288 331 5,000  Level Houston Center
Wed 09:46:00 AM 27.5333 -99.4500 42° Northeast  Level FlightAware Approximate
Wed 09:46:17 AM 27.6489 -99.5817 North 237 273 4,900  Level Houston Center
Wed 09:47:00 AM 27.5442 -99.4616 42° Northeast  Level Estimated
Wed 09:47:19 AM 27.7017 -99.5794 North 205 236 4,600  Level Houston Center
Wed 09:48:00 AM 27.5442 -99.4616 42° Northeast  Level Estimated
Wed 09:48:21 AM 27.7558 -99.5747 North 197 227 3,600  Level Houston Center
Wed 09:49:00 AM 27.5442 -99.4616 42° Northeast  Level Estimated
Wed 09:49:23 AM 27.8094 -99.5619 12° North 209 241 2,600  Level Houston Center
Wed 09:50:25 AM 27.8175 -99.5092 80° East 188 216 2,500 -48 Descending Houston Center
Wed 09:51:27 AM 27.7661 -99.4678 145° Southeast 196 226 2,500  Level Houston Center
Wed 09:52:30 AM 27.7069 -99.4553 169° South 212 244 2,500 -192 Level Houston Center
Wed 09:53:32 AM 27.6508 -99.4578 182° South 207 238 2,100 -581 Descending Houston Center
Wed 09:54:34 AM 27.6033 -99.4592 181° South 189 217 1,300 -677 Descending Houston Center
Wed 09:55:36 AM 27.5717 -99.4617 184° South 155 178 700 -581 Descending Houston Center
Wed 09:57:00 AM 27.5442 -99.4616 171° South  Level Estimated
Wed 10:04:00 AM 27.5442 -99.4616 171° South  Level Estimated
Wed 10:05:00 AM 27.5442 -99.4616 171° South  Level Estimated

Login

Don't have an account? Register now (free) for customized features, flight alerts, and more!